Terminal Aerodrome Forecast
Issued by NWS Topeka, KS

Home | Current Version | Previous Version | Graphics & Text | Print | Product List | Glossary On
Versions: 1 2 3 4 5 6 7 8 9 10 11 12 13 14 15 16 17 18 19 20 21 22 23
697
FTUS43 KTOP 170520
TAFTOP
TAF
KTOP 170520Z 1706/1806 17004KT P6SM BKN150
     FM171000 18007KT P6SM SCT015 BKN040
     FM171500 28012G18KT P6SM SCT200
     FM180100 VRB03KT P6SM SKC=

USA.gov is the U.S. government's official web portal to all federal, state and local government web resources and services.